Terminal Aerodrome Forecast
Issued by NWS Binghamton, NY

Current Version | Previous Version | Text Only | Print | Product List | Glossary On
Versions: 1 2 3 4 5 6 7 8 9 10 11 12 13 14 15 16 17 18 19
376
FTUS41 KBGM 280104 AAA
TAFSYR
TAF AMD
KSYR 280104Z 2801/2824 16010KT P6SM BKN150
      TEMPO 2802/2804 -SHRA OVC050
     FM280400 19012KT P6SM BKN100
      TEMPO 2805/2807 5SM -TSRA BR OVC040CB
     FM280700 27010KT P6SM BKN025
     FM281000 26008KT P6SM SCT025 BKN040
     FM281500 27008KT P6SM SCT050=

USA.gov is the U.S. government's official web portal to all federal, state and local government web resources and services.